This is the latest recevied weather packets stored in our database for station/object DG3RAP-11. If no packets are shown the sender has not sent any weather packets the latest 10 day(s).
| Time | Temp. | Humidity | Pressure | Rain* | Wind** | Luminosity | Snow |
|---|---|---|---|---|---|---|---|
| 1777993203 | 24.44° C | 35% | 1004.5 hPa | 0 mm | - | - | - |
| 1777992843 | 25° C | 34% | 1004.6 hPa | 0 mm | - | - | - |
| 1777992303 | 24.44° C | 35% | 1004.4 hPa | 0 mm | - | - | - |
| 1777991763 | 23.89° C | 34% | 1004.6 hPa | 0 mm | - | - | - |
| 1777991223 | 24.44° C | 34% | 1004.8 hPa | 0 mm | - | - | - |
| 1777990683 | 25.56° C | 33% | 1005.1 hPa | 0 mm | - | - | - |
| 1777989603 | 25° C | 33% | 1005 hPa | 0 mm | - | - | - |
| 1777989243 | 25° C | 31% | 1005.1 hPa | 0 mm | - | - | - |
| 1777988703 | 25.56° C | 30% | 1005.2 hPa | 0 mm | - | - | - |
| 1777988163 | 25.56° C | 29% | 1005.4 hPa | 0 mm | - | - | - |
| 1777987623 | 26.11° C | 28% | 1005.3 hPa | 0 mm | - | - | - |
| 1777987084 | 25.56° C | 28% | 1005.5 hPa | 0 mm | - | - | - |
| 1777986543 | 25.56° C | 28% | 1005.7 hPa | 0 mm | - | - | - |
| 1777986003 | 24.44° C | 31% | 1005.7 hPa | 0 mm | - | - | - |
| 1777985643 | 25.56° C | 30% | 1005.4 hPa | 0 mm | - | - | - |
| 1777985103 | 24.44° C | 31% | 1005.8 hPa | 0 mm | - | - | - |
| 1777984563 | 24.44° C | 32% | 1005.8 hPa | 0 mm | - | - | - |
| 1777984023 | 23.89° C | 31% | 1005.8 hPa | 0 mm | - | - | - |
| 1777983483 | 24.44° C | 29% | 1006 hPa | 0 mm | - | - | - |
| 1777982943 | 25.56° C | 27% | 1006.2 hPa | 0 mm | - | - | - |
| 1777982403 | 25.56° C | 29% | 1006 hPa | 0 mm | - | - | - |
| 1777982043 | 25.56° C | 31% | 1006 hPa | 0 mm | - | - | - |
| 1777981503 | 25.56° C | 32% | 1006.3 hPa | 0 mm | - | - | - |
| 1777980963 | 24.44° C | 33% | 1006.2 hPa | 0 mm | - | - | - |
| 1777980423 | 25° C | 34% | 1006.4 hPa | 0 mm | - | - | - |
* Rain latest hour (hover to see other rain measurements)
** Current wind speed in m/s (hover to see current wind gust speed)